Aeroporto :
LOGIN :

Iscrizione | Disclaimer

   EN    FR    IT 

 










Sommario :    VFR   VFR Marginale   IFR   IFR Intensivo   IFR Molto Intensivo
Visibilità : 
Base nubi : 
>= 8 km
>= 3000ft
5 / 8 km
1000 / 3000 ft
1500m / 5 km
500 / 1000 ft
800 / 1500m
200 / 500 ft
< 800m
< 200 ft
Simboli :   Temporali  Nebbia  Neve Forte  Precipitazioni Forti  Vento > 20 kt
SIGMETs :   Varie  Temporali  Ghiacco  Turbolenza  Onda orograficha  Ceneri Vulcaniche






- Altitudine del aeroporto : 326 ft
- Codice IATA : LCG


LECO - A Coruna

ULTIMO METAR :
  • 230100Z AUTO 33020G34KT 290V020 9999 FEW035 11/06 Q0995

METARs OBSOLETI :
  • 230030Z AUTO 33017G32KT 230V010 9999 -RA FEW032 SCT047 11/08 Q0995
  • 230000Z 33016G29KT 270V010 9999 SCT030 SCT040 11/07 Q0994 TEMPO 3000 RA BKN014
  • 222330Z 33017G30KT 280V020 9999 SCT030 SCT040 11/08 Q0993 TEMPO 3000 RA BKN014
  • 222300Z 32016G30KT 250V360 9000 SCT032 BKN042 10/08 Q0992 TEMPO 3000 RA BKN014

TAF TAF LECO
Valido dal 22 a 21 ore il 23 a 21 ore UTC


222000Z 2221/2321 31015KT 9999 SCT010 BKN020 TX12/2313Z TN10/2303Z
TEMPO 2221/2303 30018G35KT
TEMPO 2221/2224 30025G43KT 3000 RA SHRA BR BKN010 BKN020TCU
TEMPO 2300/2317 31015G25KT
BECMG 2315/2318 27005KT
PROB40
TEMPO 2300/2318 3000 SHRA SCT020TCU



MetMap, La meteo Aeronautica in un colpo d'occhio ! - Copyright ORBIFLY Dicembre 2007 - Disclaimer

ORBIFLY MET'MAP TEAM :

Programmazione e sviluppo : Alexandra Zaïnal
Concezione e sviluppo : Baudouin d'Aumeries
Co-Programmazione e sviluppo : Marc-Olivier Méhu
Supporto tecnico e logistico : Manuel Goepfert
Aiuto per la traduzione : Arnaldo La Scala

Contatto : metmap@orbifly.com




FONTI E CREDITI :

   NOAA